createdAt,value
2022-09-07T00:01:41.736Z,11.33
2022-09-07T00:06:42.857Z,10.68
2022-09-07T00:11:44.135Z,10.18
2022-09-07T00:16:46.894Z,9.80
2022-09-07T00:21:48.026Z,9.47
2022-09-07T00:26:49.595Z,10.36
2022-09-07T00:31:50.833Z,12.70
2022-09-07T00:36:52.492Z,13.50
2022-09-07T00:41:53.673Z,13.34
2022-09-07T00:46:54.885Z,11.94
2022-09-07T00:51:58.773Z,11.05
2022-09-07T00:57:00.069Z,10.39
2022-09-07T01:02:01.779Z,9.85
2022-09-07T01:07:04.930Z,10.22
2022-09-07T01:12:06.595Z,12.66
2022-09-07T01:17:13.632Z,13.46
2022-09-07T01:22:36.670Z,13.23
2022-09-07T01:27:56.698Z,11.63
2022-09-07T01:33:19.470Z,10.66
2022-09-07T01:38:39.253Z,9.91
2022-09-07T01:43:59.707Z,10.38
2022-09-07T01:49:22.600Z,12.50
2022-09-07T01:54:41.332Z,13.08
2022-09-07T02:00:03.546Z,13.35
2022-09-07T02:05:13.871Z,11.58
2022-09-07T02:10:25.773Z,10.55
2022-09-07T02:15:38.286Z,9.82
2022-09-07T02:20:45.522Z,10.27
2022-09-07T02:25:54.400Z,12.82
2022-09-07T02:30:55.648Z,13.10
2022-09-07T02:35:57.007Z,11.36
2022-09-07T02:41:00.592Z,10.34
2022-09-07T02:46:26.631Z,9.66
2022-09-07T02:51:39.904Z,10.43
2022-09-07T02:56:51.910Z,13.03
2022-09-07T03:02:02.145Z,13.17
2022-09-07T03:07:13.362Z,11.17
2022-09-07T03:12:14.830Z,10.03
2022-09-07T03:17:16.328Z,10.52
2022-09-07T03:22:17.425Z,13.07
2022-09-07T03:27:18.519Z,13.30
2022-09-07T03:32:19.642Z,11.29
2022-09-07T03:37:21.072Z,10.07
2022-09-07T03:42:22.541Z,9.30
2022-09-07T03:47:23.647Z,8.69
2022-09-07T03:52:25.078Z,8.24
2022-09-07T03:57:26.116Z,9.14
2022-09-07T04:02:27.379Z,12.04
2022-09-07T04:07:28.506Z,13.62
2022-09-07T04:12:29.590Z,13.23
2022-09-07T04:17:30.731Z,11.33
2022-09-07T04:22:31.905Z,10.24
2022-09-07T04:27:33.054Z,9.49
2022-09-07T04:32:34.561Z,10.13
2022-09-07T04:37:35.762Z,12.84
2022-09-07T04:42:37.907Z,13.25
2022-09-07T04:47:39.121Z,11.45
2022-09-07T04:52:40.254Z,10.40
2022-09-07T04:57:41.549Z,9.71
2022-09-07T05:02:42.887Z,10.43
2022-09-07T05:07:43.975Z,13.26
2022-09-07T05:12:45.081Z,13.50
2022-09-07T05:17:46.335Z,11.67
2022-09-07T05:22:47.685Z,10.58
2022-09-07T05:27:48.974Z,9.98
2022-09-07T05:32:50.958Z,9.54
2022-09-07T05:37:52.080Z,10.33
2022-09-07T05:42:53.248Z,13.04
2022-09-07T05:47:55.018Z,14.64
2022-09-07T05:52:59.386Z,14.29
2022-09-07T05:58:00.728Z,12.76
2022-09-07T06:03:02.945Z,12.43
2022-09-07T06:08:04.780Z,13.85
2022-09-07T06:13:06.116Z,16.40
2022-09-07T06:18:07.654Z,16.14
2022-09-07T06:23:14.209Z,16.25
2022-09-07T06:28:15.781Z,16.78
2022-09-07T06:33:19.647Z,17.20
2022-09-07T06:38:23.676Z,17.62
2022-09-07T06:43:24.939Z,18.10
2022-09-07T06:48:27.418Z,18.55
2022-09-07T06:53:34.313Z,19.06
2022-09-07T06:58:39.193Z,19.57
2022-09-07T07:03:45.442Z,20.32
2022-09-07T07:08:47.171Z,21.21
2022-09-07T07:13:48.361Z,21.87
2022-09-07T07:18:51.634Z,22.44
2022-09-07T07:23:53.133Z,23.07
2022-09-07T07:29:03.871Z,23.47
2022-09-07T07:34:05.652Z,23.82
2022-09-07T07:39:07.617Z,24.00
2022-09-07T07:44:08.871Z,24.00
2022-09-07T07:49:09.991Z,24.03
2022-09-07T07:54:11.131Z,23.63
2022-09-07T07:59:15.610Z,23.08
2022-09-07T08:04:17.064Z,22.60
2022-09-07T08:09:18.205Z,22.31
2022-09-07T08:14:19.308Z,21.94
2022-09-07T08:19:20.449Z,21.61
2022-09-07T08:24:21.986Z,21.23
2022-09-07T08:29:23.333Z,21.00
2022-09-07T08:34:24.566Z,20.92
2022-09-07T08:39:25.954Z,20.96
2022-09-07T08:44:48.871Z,21.01
2022-09-07T08:49:58.288Z,20.91
2022-09-07T08:55:27.109Z,21.00
2022-09-07T09:00:29.208Z,21.13
2022-09-07T09:06:02.013Z,21.30
2022-09-07T09:11:06.836Z,21.33
2022-09-07T09:16:22.063Z,21.29
2022-09-07T09:21:23.613Z,21.18
2022-09-07T09:26:28.185Z,21.18
2022-09-07T09:31:35.388Z,21.22
2022-09-07T09:37:03.654Z,21.17
2022-09-07T09:42:11.128Z,21.21
2022-09-07T09:47:33.223Z,21.27
2022-09-07T09:52:43.940Z,21.30
2022-09-07T10:08:36.407Z,21.23
2022-09-07T10:13:54.086Z,21.32
2022-09-07T10:18:57.999Z,21.37
2022-09-07T10:24:13.577Z,21.40
2022-09-07T10:29:36.015Z,21.44
2022-09-07T10:35:16.411Z,21.49
2022-09-07T10:40:27.269Z,21.38
2022-09-07T10:45:34.229Z,21.20
2022-09-07T10:50:47.583Z,21.09
2022-09-07T10:56:26.229Z,21.00
2022-09-07T11:01:49.482Z,20.95
2022-09-07T11:06:56.926Z,20.79
2022-09-07T11:12:04.939Z,20.74
2022-09-07T11:17:14.921Z,20.81
2022-09-07T11:22:30.451Z,20.78
2022-09-07T11:27:40.124Z,20.82
2022-09-07T11:32:51.003Z,20.88
2022-09-07T11:37:58.705Z,20.92
2022-09-07T11:43:12.925Z,20.98
2022-09-07T11:48:20.279Z,21.05
2022-09-07T11:53:26.271Z,21.08
2022-09-07T11:59:00.553Z,21.07
2022-09-07T12:04:17.954Z,21.02
2022-09-07T12:09:44.133Z,21.00
2022-09-07T12:15:10.144Z,21.02
2022-09-07T12:20:14.631Z,21.15
2022-09-07T12:25:18.233Z,21.21
2022-09-07T12:30:19.340Z,21.26
2022-09-07T12:35:39.642Z,21.27
2022-09-07T12:41:00.566Z,21.28
2022-09-07T12:46:02.510Z,21.31
2022-09-07T13:02:21.956Z,21.48
2022-09-07T13:07:42.119Z,21.51
2022-09-07T13:12:55.238Z,21.55
2022-09-07T13:17:58.421Z,21.55
2022-09-07T13:23:20.978Z,21.55
2022-09-07T13:28:31.384Z,21.41
2022-09-07T13:33:35.269Z,21.39
2022-09-07T13:38:41.982Z,21.32
2022-09-07T13:43:48.622Z,21.22
2022-09-07T13:48:57.247Z,21.25
2022-09-07T13:54:23.333Z,21.21
2022-09-07T13:59:28.366Z,21.29
2022-09-07T14:04:49.591Z,21.44
2022-09-07T14:10:12.518Z,21.57
2022-09-07T14:15:20.444Z,21.56
2022-09-07T14:20:24.209Z,21.48
2022-09-07T14:25:25.435Z,21.48
2022-09-07T14:30:32.522Z,21.38
2022-09-07T14:35:37.633Z,21.16
2022-09-07T14:40:39.069Z,21.03
2022-09-07T14:45:41.643Z,21.12
2022-09-07T14:50:54.023Z,21.20
2022-09-07T14:56:10.632Z,21.16
2022-09-07T15:12:33.012Z,20.65
2022-09-07T15:17:43.125Z,20.41
2022-09-07T15:22:50.007Z,20.12
2022-09-07T15:27:51.373Z,19.93
2022-09-07T15:32:54.546Z,19.90
2022-09-07T15:38:04.987Z,20.05
2022-09-07T15:43:20.073Z,20.13
2022-09-07T15:48:28.502Z,20.28
2022-09-07T15:58:55.202Z,20.39
2022-09-07T16:03:58.583Z,20.30
2022-09-07T16:09:00.603Z,20.24
2022-09-07T16:14:03.454Z,20.13
2022-09-07T16:19:07.385Z,19.89
2022-09-07T16:24:09.535Z,19.63
2022-09-07T16:29:11.968Z,19.38
2022-09-07T16:34:18.855Z,19.13
2022-09-07T16:39:20.127Z,18.83
2022-09-07T16:44:22.690Z,18.56
2022-09-07T16:49:23.944Z,18.29
2022-09-07T16:54:25.769Z,18.03
2022-09-07T16:59:27.609Z,17.78
2022-09-07T17:04:29.376Z,17.53
2022-09-07T17:09:31.271Z,17.31
2022-09-07T17:14:34.070Z,17.09
2022-09-07T17:19:39.351Z,16.86
2022-09-07T17:24:41.131Z,16.64
2022-09-07T17:29:43.336Z,16.43
2022-09-07T17:34:44.711Z,16.20
2022-09-07T17:39:48.314Z,15.99
2022-09-07T17:44:53.712Z,15.79
2022-09-07T17:49:55.678Z,15.60
2022-09-07T17:55:00.580Z,15.42
2022-09-07T18:00:11.992Z,15.25
2022-09-07T18:05:16.019Z,15.08
2022-09-07T18:10:17.794Z,14.93
2022-09-07T18:15:22.773Z,14.80
2022-09-07T18:20:24.442Z,14.65
2022-09-07T18:25:27.921Z,14.53
2022-09-07T18:30:30.615Z,14.44
2022-09-07T18:35:31.792Z,14.32
2022-09-07T18:40:38.302Z,14.21
2022-09-07T18:45:39.753Z,14.08
2022-09-07T18:50:42.862Z,13.96
2022-09-07T18:55:44.116Z,13.85
2022-09-07T19:00:46.918Z,13.75
2022-09-07T19:05:50.369Z,13.66
2022-09-07T19:10:52.248Z,13.58
2022-09-07T19:15:53.723Z,13.51
2022-09-07T19:20:54.995Z,13.43
2022-09-07T19:26:03.774Z,13.36
2022-09-07T19:31:06.099Z,13.28
2022-09-07T19:36:07.844Z,13.23
2022-09-07T19:41:13.779Z,13.17
2022-09-07T19:46:22.710Z,13.11
2022-09-07T19:51:25.925Z,13.03
2022-09-07T19:56:27.196Z,12.94
2022-09-07T20:01:30.264Z,12.85
2022-09-07T20:06:33.505Z,12.76
2022-09-07T20:11:35.660Z,12.66
2022-09-07T20:16:38.600Z,12.56
2022-09-07T20:21:39.857Z,12.47
2022-09-07T20:26:41.075Z,12.38
2022-09-07T20:31:43.357Z,12.30
2022-09-07T20:36:44.686Z,12.21
2022-09-07T20:41:46.224Z,12.13
2022-09-07T20:46:47.482Z,12.07
2022-09-07T20:51:48.972Z,13.00
2022-09-07T20:56:50.056Z,15.70
2022-09-07T21:01:51.308Z,17.00
2022-09-07T21:06:52.753Z,16.89
2022-09-07T21:11:57.135Z,15.21
2022-09-07T21:16:58.430Z,14.20
2022-09-07T21:21:59.594Z,13.55
2022-09-07T21:27:00.732Z,13.07
2022-09-07T21:32:02.553Z,12.68
2022-09-07T21:37:06.817Z,12.35
2022-09-07T21:42:08.141Z,12.07
2022-09-07T21:47:09.811Z,11.86
2022-09-07T21:52:10.914Z,11.69
2022-09-07T21:57:12.080Z,11.55
2022-09-07T22:02:13.222Z,11.43
2022-09-07T22:07:14.671Z,11.33
2022-09-07T22:12:16.240Z,11.24
2022-09-07T22:17:17.370Z,11.15
2022-09-07T22:22:18.509Z,12.00
2022-09-07T22:27:19.767Z,14.65
2022-09-07T22:32:21.226Z,16.24
2022-09-07T22:37:22.386Z,15.63
2022-09-07T22:42:23.928Z,14.10
2022-09-07T22:47:25.307Z,13.25
2022-09-07T22:52:26.752Z,12.66
2022-09-07T22:57:27.884Z,12.15
2022-09-07T23:02:29.071Z,11.74
2022-09-07T23:07:30.191Z,11.42
2022-09-07T23:12:31.685Z,11.17
2022-09-07T23:17:33.209Z,10.97
2022-09-07T23:22:34.240Z,10.80
2022-09-07T23:27:35.942Z,10.67
2022-09-07T23:32:37.081Z,10.59
2022-09-07T23:37:38.258Z,11.66
2022-09-07T23:42:39.488Z,14.54
2022-09-07T23:47:40.896Z,15.92
2022-09-07T23:52:42.009Z,15.32
2022-09-07T23:57:43.276Z,13.55
